sensor_id;sensor_type;location;lat;lon;timestamp;P1;durP1;ratioP1;P2;durP2;ratioP2
32186;SDS011;18686;53.084;8.872;2023-11-19T00:00:17;50.60;;;18.08;;
32186;SDS011;18686;53.084;8.872;2023-11-19T00:02:45;55.83;;;19.15;;
32186;SDS011;18686;53.084;8.872;2023-11-19T00:05:14;57.13;;;19.83;;
32186;SDS011;18686;53.084;8.872;2023-11-19T00:07:42;58.03;;;19.65;;
32186;SDS011;18686;53.084;8.872;2023-11-19T00:10:11;53.35;;;18.98;;
32186;SDS011;18686;53.084;8.872;2023-11-19T00:12:41;58.88;;;19.08;;
32186;SDS011;18686;53.084;8.872;2023-11-19T00:15:11;62.08;;;20.40;;
32186;SDS011;18686;53.084;8.872;2023-11-19T00:17:41;63.30;;;20.67;;
32186;SDS011;18686;53.084;8.872;2023-11-19T00:20:11;62.33;;;21.30;;
32186;SDS011;18686;53.084;8.872;2023-11-19T00:22:40;74.20;;;23.63;;
32186;SDS011;18686;53.084;8.872;2023-11-19T00:25:11;84.60;;;23.85;;
32186;SDS011;18686;53.084;8.872;2023-11-19T00:27:40;85.80;;;24.25;;
32186;SDS011;18686;53.084;8.872;2023-11-19T00:30:11;80.80;;;24.52;;
32186;SDS011;18686;53.084;8.872;2023-11-19T00:32:42;82.05;;;25.92;;
32186;SDS011;18686;53.084;8.872;2023-11-19T00:35:11;98.35;;;26.63;;
32186;SDS011;18686;53.084;8.872;2023-11-19T00:37:41;84.30;;;25.27;;
32186;SDS011;18686;53.084;8.872;2023-11-19T00:40:14;98.55;;;28.17;;
32186;SDS011;18686;53.084;8.872;2023-11-19T00:42:45;105.47;;;28.48;;
32186;SDS011;18686;53.084;8.872;2023-11-19T00:45:14;117.82;;;29.67;;
32186;SDS011;18686;53.084;8.872;2023-11-19T00:47:44;103.82;;;29.20;;
32186;SDS011;18686;53.084;8.872;2023-11-19T00:50:12;104.05;;;29.38;;
32186;SDS011;18686;53.084;8.872;2023-11-19T00:52:40;110.18;;;30.15;;
32186;SDS011;18686;53.084;8.872;2023-11-19T00:55:08;127.13;;;32.63;;
32186;SDS011;18686;53.084;8.872;2023-11-19T00:57:39;117.47;;;31.23;;
32186;SDS011;18686;53.084;8.872;2023-11-19T01:00:08;117.63;;;30.83;;
32186;SDS011;18686;53.084;8.872;2023-11-19T01:02:47;125.13;;;33.17;;
32186;SDS011;18686;53.084;8.872;2023-11-19T01:05:18;134.65;;;32.15;;
32186;SDS011;18686;53.084;8.872;2023-11-19T01:07:49;118.32;;;28.92;;
32186;SDS011;18686;53.084;8.872;2023-11-19T01:10:21;122.28;;;31.08;;
32186;SDS011;18686;53.084;8.872;2023-11-19T01:12:49;123.32;;;30.10;;
32186;SDS011;18686;53.084;8.872;2023-11-19T01:15:17;138.48;;;30.63;;
32186;SDS011;18686;53.084;8.872;2023-11-19T01:17:47;149.43;;;32.03;;
32186;SDS011;18686;53.084;8.872;2023-11-19T01:20:19;129.45;;;32.10;;
32186;SDS011;18686;53.084;8.872;2023-11-19T01:22:48;122.07;;;32.08;;
32186;SDS011;18686;53.084;8.872;2023-11-19T01:25:16;138.68;;;33.65;;
32186;SDS011;18686;53.084;8.872;2023-11-19T01:27:45;143.43;;;34.40;;
32186;SDS011;18686;53.084;8.872;2023-11-19T01:30:13;240.27;;;38.88;;
32186;SDS011;18686;53.084;8.872;2023-11-19T01:32:41;151.30;;;35.67;;
32186;SDS011;18686;53.084;8.872;2023-11-19T01:35:11;168.13;;;36.10;;
32186;SDS011;18686;53.084;8.872;2023-11-19T01:37:39;156.25;;;34.65;;
32186;SDS011;18686;53.084;8.872;2023-11-19T01:40:08;154.35;;;36.05;;
32186;SDS011;18686;53.084;8.872;2023-11-19T01:42:37;141.25;;;33.42;;
32186;SDS011;18686;53.084;8.872;2023-11-19T01:45:06;148.00;;;35.00;;
32186;SDS011;18686;53.084;8.872;2023-11-19T01:47:37;151.50;;;35.72;;
32186;SDS011;18686;53.084;8.872;2023-11-19T01:50:06;158.20;;;35.00;;
32186;SDS011;18686;53.084;8.872;2023-11-19T01:52:36;140.23;;;34.17;;
32186;SDS011;18686;53.084;8.872;2023-11-19T01:55:06;165.85;;;37.35;;
32186;SDS011;18686;53.084;8.872;2023-11-19T01:57:36;143.38;;;35.08;;
32186;SDS011;18686;53.084;8.872;2023-11-19T02:00:07;158.52;;;35.35;;
32186;SDS011;18686;53.084;8.872;2023-11-19T02:02:39;130.63;;;34.97;;
32186;SDS011;18686;53.084;8.872;2023-11-19T02:05:08;156.75;;;34.75;;
32186;SDS011;18686;53.084;8.872;2023-11-19T02:07:38;129.23;;;34.90;;
32186;SDS011;18686;53.084;8.872;2023-11-19T02:10:06;141.93;;;34.17;;
32186;SDS011;18686;53.084;8.872;2023-11-19T02:12:40;173.50;;;35.72;;
32186;SDS011;18686;53.084;8.872;2023-11-19T02:15:10;149.95;;;36.75;;
32186;SDS011;18686;53.084;8.872;2023-11-19T02:17:38;150.48;;;34.60;;
32186;SDS011;18686;53.084;8.872;2023-11-19T02:20:07;143.52;;;35.10;;
32186;SDS011;18686;53.084;8.872;2023-11-19T02:22:40;172.30;;;35.63;;
32186;SDS011;18686;53.084;8.872;2023-11-19T02:25:11;181.85;;;35.33;;
32186;SDS011;18686;53.084;8.872;2023-11-19T02:27:47;147.88;;;32.00;;
32186;SDS011;18686;53.084;8.872;2023-11-19T02:30:22;182.13;;;37.22;;
32186;SDS011;18686;53.084;8.872;2023-11-19T02:32:53;157.65;;;34.38;;
32186;SDS011;18686;53.084;8.872;2023-11-19T02:35:24;171.27;;;37.22;;
32186;SDS011;18686;53.084;8.872;2023-11-19T02:37:52;184.88;;;37.33;;
32186;SDS011;18686;53.084;8.872;2023-11-19T02:40:21;191.65;;;39.33;;
32186;SDS011;18686;53.084;8.872;2023-11-19T02:42:52;197.43;;;38.03;;
32186;SDS011;18686;53.084;8.872;2023-11-19T02:45:22;183.18;;;38.15;;
32186;SDS011;18686;53.084;8.872;2023-11-19T02:47:51;215.70;;;41.90;;
32186;SDS011;18686;53.084;8.872;2023-11-19T02:50:21;226.13;;;43.85;;
32186;SDS011;18686;53.084;8.872;2023-11-19T02:52:53;221.18;;;44.88;;
32186;SDS011;18686;53.084;8.872;2023-11-19T02:55:23;214.35;;;43.97;;
32186;SDS011;18686;53.084;8.872;2023-11-19T02:57:56;226.57;;;46.92;;
32186;SDS011;18686;53.084;8.872;2023-11-19T03:00:26;288.92;;;49.70;;
32186;SDS011;18686;53.084;8.872;2023-11-19T03:03:02;257.45;;;49.28;;
32186;SDS011;18686;53.084;8.872;2023-11-19T03:05:44;246.82;;;46.20;;
32186;SDS011;18686;53.084;8.872;2023-11-19T03:08:13;236.30;;;46.88;;
32186;SDS011;18686;53.084;8.872;2023-11-19T03:10:45;273.30;;;49.40;;
32186;SDS011;18686;53.084;8.872;2023-11-19T03:13:17;267.70;;;48.35;;
32186;SDS011;18686;53.084;8.872;2023-11-19T03:15:45;167.73;;;43.63;;
32186;SDS011;18686;53.084;8.872;2023-11-19T03:18:14;229.50;;;44.30;;
32186;SDS011;18686;53.084;8.872;2023-11-19T03:20:42;218.82;;;44.20;;
32186;SDS011;18686;53.084;8.872;2023-11-19T03:23:10;218.10;;;45.50;;
32186;SDS011;18686;53.084;8.872;2023-11-19T03:25:38;235.27;;;46.10;;
32186;SDS011;18686;53.084;8.872;2023-11-19T03:28:06;209.60;;;43.90;;
32186;SDS011;18686;53.084;8.872;2023-11-19T03:30:37;263.55;;;48.35;;
32186;SDS011;18686;53.084;8.872;2023-11-19T03:33:05;245.45;;;45.85;;
32186;SDS011;18686;53.084;8.872;2023-11-19T03:35:34;214.85;;;44.85;;
32186;SDS011;18686;53.084;8.872;2023-11-19T03:38:02;193.82;;;45.00;;
32186;SDS011;18686;53.084;8.872;2023-11-19T03:40:30;265.90;;;47.85;;
32186;SDS011;18686;53.084;8.872;2023-11-19T03:42:58;215.90;;;44.72;;
32186;SDS011;18686;53.084;8.872;2023-11-19T03:45:27;225.65;;;45.45;;
32186;SDS011;18686;53.084;8.872;2023-11-19T03:47:56;222.43;;;45.03;;
32186;SDS011;18686;53.084;8.872;2023-11-19T03:50:24;285.58;;;47.78;;
32186;SDS011;18686;53.084;8.872;2023-11-19T03:52:52;307.92;;;51.08;;
32186;SDS011;18686;53.084;8.872;2023-11-19T03:55:21;289.67;;;50.22;;
32186;SDS011;18686;53.084;8.872;2023-11-19T03:57:49;269.77;;;47.72;;
32186;SDS011;18686;53.084;8.872;2023-11-19T04:00:17;299.48;;;49.00;;
32186;SDS011;18686;53.084;8.872;2023-11-19T04:02:47;191.68;;;42.22;;
32186;SDS011;18686;53.084;8.872;2023-11-19T04:05:17;181.00;;;41.50;;
32186;SDS011;18686;53.084;8.872;2023-11-19T04:07:46;223.90;;;43.45;;
32186;SDS011;18686;53.084;8.872;2023-11-19T04:10:14;268.15;;;47.35;;
32186;SDS011;18686;53.084;8.872;2023-11-19T04:12:43;219.77;;;44.80;;
32186;SDS011;18686;53.084;8.872;2023-11-19T04:15:11;236.55;;;47.50;;
32186;SDS011;18686;53.084;8.872;2023-11-19T04:17:40;279.30;;;51.65;;
32186;SDS011;18686;53.084;8.872;2023-11-19T04:20:09;219.55;;;45.20;;
32186;SDS011;18686;53.084;8.872;2023-11-19T04:22:42;240.30;;;45.80;;
32186;SDS011;18686;53.084;8.872;2023-11-19T04:25:10;247.13;;;47.00;;
32186;SDS011;18686;53.084;8.872;2023-11-19T04:27:38;251.55;;;46.50;;
32186;SDS011;18686;53.084;8.872;2023-11-19T04:30:08;240.48;;;45.47;;
32186;SDS011;18686;53.084;8.872;2023-11-19T04:32:38;236.23;;;44.90;;
32186;SDS011;18686;53.084;8.872;2023-11-19T04:35:07;272.90;;;48.10;;
32186;SDS011;18686;53.084;8.872;2023-11-19T04:37:36;274.17;;;48.53;;
32186;SDS011;18686;53.084;8.872;2023-11-19T04:40:06;221.80;;;45.83;;
32186;SDS011;18686;53.084;8.872;2023-11-19T04:42:35;277.08;;;49.40;;
32186;SDS011;18686;53.084;8.872;2023-11-19T04:45:04;224.90;;;45.70;;
32186;SDS011;18686;53.084;8.872;2023-11-19T04:47:33;272.42;;;47.80;;
32186;SDS011;18686;53.084;8.872;2023-11-19T04:50:02;275.67;;;48.47;;
32186;SDS011;18686;53.084;8.872;2023-11-19T04:52:30;241.43;;;47.35;;
32186;SDS011;18686;53.084;8.872;2023-11-19T04:54:58;245.00;;;45.03;;
32186;SDS011;18686;53.084;8.872;2023-11-19T04:57:28;271.85;;;51.15;;
32186;SDS011;18686;53.084;8.872;2023-11-19T04:59:57;247.80;;;47.22;;
32186;SDS011;18686;53.084;8.872;2023-11-19T05:02:25;238.85;;;45.45;;
32186;SDS011;18686;53.084;8.872;2023-11-19T05:04:54;203.05;;;42.13;;
32186;SDS011;18686;53.084;8.872;2023-11-19T05:07:23;211.85;;;41.88;;
32186;SDS011;18686;53.084;8.872;2023-11-19T05:09:51;189.35;;;41.58;;
32186;SDS011;18686;53.084;8.872;2023-11-19T05:12:19;227.77;;;42.60;;
32186;SDS011;18686;53.084;8.872;2023-11-19T05:14:50;215.35;;;43.97;;
32186;SDS011;18686;53.084;8.872;2023-11-19T05:17:18;249.35;;;44.13;;
32186;SDS011;18686;53.084;8.872;2023-11-19T05:19:47;204.25;;;42.00;;
32186;SDS011;18686;53.084;8.872;2023-11-19T05:22:15;233.93;;;44.92;;
32186;SDS011;18686;53.084;8.872;2023-11-19T05:24:44;206.32;;;39.88;;
32186;SDS011;18686;53.084;8.872;2023-11-19T05:27:14;210.63;;;39.88;;
32186;SDS011;18686;53.084;8.872;2023-11-19T05:29:43;149.77;;;35.22;;
32186;SDS011;18686;53.084;8.872;2023-11-19T05:32:12;173.77;;;35.17;;
32186;SDS011;18686;53.084;8.872;2023-11-19T05:34:40;176.13;;;38.20;;
32186;SDS011;18686;53.084;8.872;2023-11-19T05:37:11;205.85;;;38.40;;
32186;SDS011;18686;53.084;8.872;2023-11-19T05:39:39;179.65;;;35.90;;
32186;SDS011;18686;53.084;8.872;2023-11-19T05:42:08;160.70;;;33.50;;
32186;SDS011;18686;53.084;8.872;2023-11-19T05:44:36;176.18;;;34.75;;
32186;SDS011;18686;53.084;8.872;2023-11-19T05:47:07;128.43;;;29.88;;
32186;SDS011;18686;53.084;8.872;2023-11-19T05:49:37;138.88;;;32.00;;
32186;SDS011;18686;53.084;8.872;2023-11-19T05:52:05;120.30;;;29.35;;
32186;SDS011;18686;53.084;8.872;2023-11-19T05:54:36;159.90;;;32.20;;
32186;SDS011;18686;53.084;8.872;2023-11-19T05:57:04;111.90;;;27.05;;
32186;SDS011;18686;53.084;8.872;2023-11-19T05:59:35;150.50;;;30.75;;
32186;SDS011;18686;53.084;8.872;2023-11-19T06:02:04;154.07;;;31.25;;
32186;SDS011;18686;53.084;8.872;2023-11-19T06:04:33;150.80;;;28.98;;
32186;SDS011;18686;53.084;8.872;2023-11-19T06:07:02;131.20;;;27.17;;
32186;SDS011;18686;53.084;8.872;2023-11-19T06:09:31;145.77;;;29.95;;
32186;SDS011;18686;53.084;8.872;2023-11-19T06:12:00;133.63;;;26.95;;
32186;SDS011;18686;53.084;8.872;2023-11-19T06:14:30;127.30;;;24.65;;
32186;SDS011;18686;53.084;8.872;2023-11-19T06:16:58;131.27;;;26.38;;
32186;SDS011;18686;53.084;8.872;2023-11-19T06:19:26;133.77;;;25.38;;
32186;SDS011;18686;53.084;8.872;2023-11-19T06:21:56;113.57;;;22.75;;
32186;SDS011;18686;53.084;8.872;2023-11-19T06:24:26;92.63;;;20.85;;
32186;SDS011;18686;53.084;8.872;2023-11-19T06:26:54;128.35;;;24.33;;
32186;SDS011;18686;53.084;8.872;2023-11-19T06:29:22;86.07;;;21.05;;
32186;SDS011;18686;53.084;8.872;2023-11-19T06:31:51;108.30;;;21.77;;
32186;SDS011;18686;53.084;8.872;2023-11-19T06:34:19;106.50;;;21.38;;
32186;SDS011;18686;53.084;8.872;2023-11-19T06:36:47;113.78;;;21.02;;
32186;SDS011;18686;53.084;8.872;2023-11-19T06:39:15;129.02;;;20.95;;
32186;SDS011;18686;53.084;8.872;2023-11-19T06:41:46;112.82;;;21.27;;
32186;SDS011;18686;53.084;8.872;2023-11-19T06:44:15;126.72;;;18.40;;
32186;SDS011;18686;53.084;8.872;2023-11-19T06:46:43;88.60;;;16.38;;
32186;SDS011;18686;53.084;8.872;2023-11-19T06:49:11;114.47;;;17.20;;
32186;SDS011;18686;53.084;8.872;2023-11-19T06:51:41;128.77;;;18.60;;
32186;SDS011;18686;53.084;8.872;2023-11-19T06:54:10;107.57;;;15.98;;
32186;SDS011;18686;53.084;8.872;2023-11-19T06:56:38;105.50;;;16.63;;
32186;SDS011;18686;53.084;8.872;2023-11-19T06:59:08;107.45;;;16.35;;
32186;SDS011;18686;53.084;8.872;2023-11-19T07:01:37;119.05;;;16.70;;
32186;SDS011;18686;53.084;8.872;2023-11-19T07:04:05;161.07;;;19.33;;
32186;SDS011;18686;53.084;8.872;2023-11-19T07:06:35;115.55;;;16.52;;
32186;SDS011;18686;53.084;8.872;2023-11-19T07:09:04;107.88;;;15.70;;
32186;SDS011;18686;53.084;8.872;2023-11-19T07:11:36;138.45;;;17.50;;
32186;SDS011;18686;53.084;8.872;2023-11-19T07:14:06;145.75;;;18.67;;
32186;SDS011;18686;53.084;8.872;2023-11-19T07:16:36;125.50;;;17.50;;
32186;SDS011;18686;53.084;8.872;2023-11-19T07:19:05;108.78;;;16.90;;
32186;SDS011;18686;53.084;8.872;2023-11-19T07:21:33;96.45;;;14.68;;
32186;SDS011;18686;53.084;8.872;2023-11-19T07:24:02;111.65;;;17.40;;
32186;SDS011;18686;53.084;8.872;2023-11-19T07:26:30;119.70;;;18.00;;
32186;SDS011;18686;53.084;8.872;2023-11-19T07:28:59;114.88;;;15.20;;
32186;SDS011;18686;53.084;8.872;2023-11-19T07:31:29;97.30;;;15.60;;
32186;SDS011;18686;53.084;8.872;2023-11-19T07:33:58;135.70;;;20.00;;
32186;SDS011;18686;53.084;8.872;2023-11-19T07:36:26;121.97;;;17.75;;
32186;SDS011;18686;53.084;8.872;2023-11-19T07:38:55;129.23;;;17.58;;
32186;SDS011;18686;53.084;8.872;2023-11-19T07:41:24;129.80;;;18.27;;
32186;SDS011;18686;53.084;8.872;2023-11-19T07:43:52;121.25;;;15.73;;
32186;SDS011;18686;53.084;8.872;2023-11-19T07:46:21;96.45;;;14.20;;
32186;SDS011;18686;53.084;8.872;2023-11-19T07:48:50;103.38;;;13.15;;
32186;SDS011;18686;53.084;8.872;2023-11-19T07:51:19;106.00;;;14.35;;
32186;SDS011;18686;53.084;8.872;2023-11-19T07:53:48;107.32;;;14.13;;
32186;SDS011;18686;53.084;8.872;2023-11-19T07:56:16;102.88;;;13.88;;
32186;SDS011;18686;53.084;8.872;2023-11-19T07:58:44;97.95;;;14.75;;
32186;SDS011;18686;53.084;8.872;2023-11-19T08:01:13;109.80;;;14.63;;
32186;SDS011;18686;53.084;8.872;2023-11-19T08:03:43;119.70;;;16.30;;
32186;SDS011;18686;53.084;8.872;2023-11-19T08:06:16;129.27;;;17.38;;
32186;SDS011;18686;53.084;8.872;2023-11-19T08:08:44;91.30;;;14.48;;
32186;SDS011;18686;53.084;8.872;2023-11-19T08:11:14;82.07;;;13.50;;
32186;SDS011;18686;53.084;8.872;2023-11-19T08:13:42;104.93;;;14.85;;
32186;SDS011;18686;53.084;8.872;2023-11-19T08:16:11;132.88;;;15.05;;
32186;SDS011;18686;53.084;8.872;2023-11-19T08:18:41;111.07;;;13.88;;
32186;SDS011;18686;53.084;8.872;2023-11-19T08:21:15;108.95;;;13.57;;
32186;SDS011;18686;53.084;8.872;2023-11-19T08:23:43;121.20;;;14.00;;
32186;SDS011;18686;53.084;8.872;2023-11-19T08:26:12;85.75;;;11.30;;
32186;SDS011;18686;53.084;8.872;2023-11-19T08:28:44;108.57;;;13.45;;
32186;SDS011;18686;53.084;8.872;2023-11-19T08:31:13;104.20;;;13.50;;
32186;SDS011;18686;53.084;8.872;2023-11-19T08:33:41;115.75;;;13.10;;
32186;SDS011;18686;53.084;8.872;2023-11-19T08:36:16;90.47;;;13.38;;
32186;SDS011;18686;53.084;8.872;2023-11-19T08:38:44;108.10;;;14.73;;
32186;SDS011;18686;53.084;8.872;2023-11-19T08:41:15;108.15;;;13.77;;
32186;SDS011;18686;53.084;8.872;2023-11-19T08:43:44;79.90;;;12.00;;
32186;SDS011;18686;53.084;8.872;2023-11-19T08:46:13;108.07;;;13.05;;
32186;SDS011;18686;53.084;8.872;2023-11-19T08:48:41;80.72;;;10.10;;
32186;SDS011;18686;53.084;8.872;2023-11-19T08:51:09;93.53;;;11.23;;
32186;SDS011;18686;53.084;8.872;2023-11-19T08:53:39;84.65;;;11.75;;
32186;SDS011;18686;53.084;8.872;2023-11-19T08:56:07;73.32;;;11.18;;
32186;SDS011;18686;53.084;8.872;2023-11-19T08:58:35;106.70;;;11.18;;
32186;SDS011;18686;53.084;8.872;2023-11-19T09:01:04;81.90;;;11.25;;
32186;SDS011;18686;53.084;8.872;2023-11-19T09:03:32;92.10;;;10.43;;
32186;SDS011;18686;53.084;8.872;2023-11-19T09:06:00;97.95;;;9.90;;
32186;SDS011;18686;53.084;8.872;2023-11-19T09:08:29;89.38;;;9.32;;
32186;SDS011;18686;53.084;8.872;2023-11-19T09:10:58;58.20;;;9.40;;
32186;SDS011;18686;53.084;8.872;2023-11-19T09:13:27;92.40;;;9.48;;
32186;SDS011;18686;53.084;8.872;2023-11-19T09:15:55;57.75;;;6.63;;
32186;SDS011;18686;53.084;8.872;2023-11-19T09:18:29;106.93;;;9.52;;
32186;SDS011;18686;53.084;8.872;2023-11-19T09:20:58;99.45;;;10.10;;
32186;SDS011;18686;53.084;8.872;2023-11-19T09:23:27;89.25;;;9.13;;
32186;SDS011;18686;53.084;8.872;2023-11-19T09:25:55;68.90;;;7.93;;
32186;SDS011;18686;53.084;8.872;2023-11-19T09:28:25;87.88;;;8.73;;
32186;SDS011;18686;53.084;8.872;2023-11-19T09:30:53;68.90;;;7.68;;
32186;SDS011;18686;53.084;8.872;2023-11-19T09:33:21;72.13;;;7.35;;
32186;SDS011;18686;53.084;8.872;2023-11-19T09:35:50;106.25;;;10.15;;
32186;SDS011;18686;53.084;8.872;2023-11-19T09:38:18;82.90;;;7.70;;
32186;SDS011;18686;53.084;8.872;2023-11-19T09:40:46;100.93;;;8.68;;
32186;SDS011;18686;53.084;8.872;2023-11-19T09:43:14;86.15;;;7.53;;
32186;SDS011;18686;53.084;8.872;2023-11-19T09:45:46;85.57;;;9.98;;
32186;SDS011;18686;53.084;8.872;2023-11-19T09:48:16;110.68;;;9.38;;
32186;SDS011;18686;53.084;8.872;2023-11-19T09:50:45;88.57;;;8.95;;
32186;SDS011;18686;53.084;8.872;2023-11-19T09:53:15;125.57;;;9.77;;
32186;SDS011;18686;53.084;8.872;2023-11-19T09:55:43;83.68;;;8.32;;
32186;SDS011;18686;53.084;8.872;2023-11-19T09:58:13;89.32;;;9.20;;
32186;SDS011;18686;53.084;8.872;2023-11-19T10:00:42;83.35;;;9.57;;
32186;SDS011;18686;53.084;8.872;2023-11-19T10:03:22;114.70;;;10.50;;
32186;SDS011;18686;53.084;8.872;2023-11-19T10:05:52;133.65;;;11.52;;
32186;SDS011;18686;53.084;8.872;2023-11-19T10:08:21;96.20;;;9.98;;
32186;SDS011;18686;53.084;8.872;2023-11-19T10:10:50;105.07;;;10.07;;
32186;SDS011;18686;53.084;8.872;2023-11-19T10:13:18;101.07;;;10.70;;
32186;SDS011;18686;53.084;8.872;2023-11-19T10:15:46;113.70;;;12.15;;
32186;SDS011;18686;53.084;8.872;2023-11-19T10:18:16;121.70;;;10.35;;
32186;SDS011;18686;53.084;8.872;2023-11-19T10:20:46;109.22;;;10.77;;
32186;SDS011;18686;53.084;8.872;2023-11-19T10:23:15;71.50;;;9.60;;
32186;SDS011;18686;53.084;8.872;2023-11-19T10:25:43;104.28;;;10.65;;
32186;SDS011;18686;53.084;8.872;2023-11-19T10:28:11;95.35;;;10.18;;
32186;SDS011;18686;53.084;8.872;2023-11-19T10:30:42;117.05;;;13.32;;
32186;SDS011;18686;53.084;8.872;2023-11-19T10:33:11;137.23;;;14.30;;
32186;SDS011;18686;53.084;8.872;2023-11-19T10:35:55;87.25;;;11.77;;
32186;SDS011;18686;53.084;8.872;2023-11-19T10:38:27;102.50;;;11.98;;
32186;SDS011;18686;53.084;8.872;2023-11-19T10:40:55;107.50;;;11.77;;
32186;SDS011;18686;53.084;8.872;2023-11-19T10:43:24;80.57;;;11.20;;
32186;SDS011;18686;53.084;8.872;2023-11-19T10:45:52;115.63;;;12.98;;
32186;SDS011;18686;53.084;8.872;2023-11-19T10:48:23;75.15;;;11.55;;
32186;SDS011;18686;53.084;8.872;2023-11-19T10:50:53;103.82;;;11.95;;
32186;SDS011;18686;53.084;8.872;2023-11-19T10:53:23;74.95;;;10.60;;
32186;SDS011;18686;53.084;8.872;2023-11-19T10:55:53;109.05;;;11.98;;
32186;SDS011;18686;53.084;8.872;2023-11-19T10:58:26;96.03;;;10.13;;
32186;SDS011;18686;53.084;8.872;2023-11-19T11:01:01;78.22;;;9.55;;
32186;SDS011;18686;53.084;8.872;2023-11-19T11:03:34;94.60;;;11.63;;
32186;SDS011;18686;53.084;8.872;2023-11-19T11:06:08;96.75;;;11.88;;
32186;SDS011;18686;53.084;8.872;2023-11-19T11:08:38;91.10;;;9.85;;
32186;SDS011;18686;53.084;8.872;2023-11-19T11:11:07;73.47;;;8.98;;
32186;SDS011;18686;53.084;8.872;2023-11-19T11:13:38;76.50;;;10.05;;
32186;SDS011;18686;53.084;8.872;2023-11-19T11:16:10;78.38;;;9.65;;
32186;SDS011;18686;53.084;8.872;2023-11-19T11:18:38;90.07;;;9.27;;
32186;SDS011;18686;53.084;8.872;2023-11-19T11:21:09;55.80;;;7.80;;
32186;SDS011;18686;53.084;8.872;2023-11-19T11:23:46;64.97;;;8.35;;
32186;SDS011;18686;53.084;8.872;2023-11-19T11:26:40;45.47;;;6.93;;
32186;SDS011;18686;53.084;8.872;2023-11-19T11:29:21;33.35;;;5.32;;
32186;SDS011;18686;53.084;8.872;2023-11-19T11:31:58;31.30;;;5.57;;
32186;SDS011;18686;53.084;8.872;2023-11-19T11:34:38;29.73;;;5.35;;
32186;SDS011;18686;53.084;8.872;2023-11-19T11:37:25;33.72;;;5.30;;
32186;SDS011;18686;53.084;8.872;2023-11-19T11:40:00;42.38;;;6.68;;
32186;SDS011;18686;53.084;8.872;2023-11-19T11:42:35;29.65;;;5.60;;
32186;SDS011;18686;53.084;8.872;2023-11-19T11:45:04;39.90;;;6.10;;
32186;SDS011;18686;53.084;8.872;2023-11-19T11:50:53;37.72;;;6.47;;
32186;SDS011;18686;53.084;8.872;2023-11-19T11:53:25;43.33;;;6.57;;
32186;SDS011;18686;53.084;8.872;2023-11-19T11:55:54;44.38;;;6.32;;
32186;SDS011;18686;53.084;8.872;2023-11-19T11:58:31;44.22;;;5.75;;
32186;SDS011;18686;53.084;8.872;2023-11-19T12:01:02;43.10;;;6.82;;
32186;SDS011;18686;53.084;8.872;2023-11-19T12:03:32;42.22;;;6.82;;
32186;SDS011;18686;53.084;8.872;2023-11-19T12:06:01;38.70;;;5.65;;
32186;SDS011;18686;53.084;8.872;2023-11-19T12:08:31;41.95;;;6.47;;
32186;SDS011;18686;53.084;8.872;2023-11-19T12:11:19;50.85;;;6.13;;
32186;SDS011;18686;53.084;8.872;2023-11-19T12:13:54;62.92;;;6.43;;
32186;SDS011;18686;53.084;8.872;2023-11-19T12:16:26;65.88;;;7.55;;
32186;SDS011;18686;53.084;8.872;2023-11-19T12:18:56;73.68;;;6.68;;
32186;SDS011;18686;53.084;8.872;2023-11-19T12:21:31;46.13;;;5.82;;
32186;SDS011;18686;53.084;8.872;2023-11-19T12:24:01;44.22;;;5.70;;
32186;SDS011;18686;53.084;8.872;2023-11-19T12:26:35;51.45;;;6.55;;
32186;SDS011;18686;53.084;8.872;2023-11-19T12:29:05;68.50;;;6.72;;
32186;SDS011;18686;53.084;8.872;2023-11-19T12:31:35;78.35;;;8.93;;
32186;SDS011;18686;53.084;8.872;2023-11-19T12:34:08;54.33;;;6.18;;
32186;SDS011;18686;53.084;8.872;2023-11-19T12:36:39;44.35;;;6.45;;
32186;SDS011;18686;53.084;8.872;2023-11-19T12:39:12;62.13;;;6.45;;
32186;SDS011;18686;53.084;8.872;2023-11-19T12:41:51;78.72;;;9.43;;
32186;SDS011;18686;53.084;8.872;2023-11-19T12:44:21;67.30;;;7.03;;
32186;SDS011;18686;53.084;8.872;2023-11-19T12:46:59;61.88;;;6.22;;
32186;SDS011;18686;53.084;8.872;2023-11-19T12:49:28;62.35;;;7.45;;
32186;SDS011;18686;53.084;8.872;2023-11-19T12:51:57;73.57;;;7.50;;
32186;SDS011;18686;53.084;8.872;2023-11-19T12:54:34;57.65;;;6.50;;
32186;SDS011;18686;53.084;8.872;2023-11-19T12:57:04;52.45;;;5.32;;
32186;SDS011;18686;53.084;8.872;2023-11-19T12:59:32;76.20;;;7.07;;
32186;SDS011;18686;53.084;8.872;2023-11-19T13:02:00;65.78;;;6.38;;
32186;SDS011;18686;53.084;8.872;2023-11-19T13:04:32;53.63;;;5.63;;
32186;SDS011;18686;53.084;8.872;2023-11-19T13:07:01;44.00;;;5.03;;
32186;SDS011;18686;53.084;8.872;2023-11-19T13:09:34;48.45;;;5.43;;
32186;SDS011;18686;53.084;8.872;2023-11-19T13:12:12;46.80;;;5.10;;
32186;SDS011;18686;53.084;8.872;2023-11-19T13:14:42;45.35;;;4.20;;
32186;SDS011;18686;53.084;8.872;2023-11-19T13:17:13;30.95;;;3.33;;
32186;SDS011;18686;53.084;8.872;2023-11-19T13:19:42;44.75;;;4.35;;
32186;SDS011;18686;53.084;8.872;2023-11-19T13:22:10;16.52;;;2.08;;
32186;SDS011;18686;53.084;8.872;2023-11-19T13:24:40;18.00;;;2.67;;
32186;SDS011;18686;53.084;8.872;2023-11-19T13:27:09;14.88;;;2.80;;
32186;SDS011;18686;53.084;8.872;2023-11-19T13:29:38;22.40;;;3.15;;
32186;SDS011;18686;53.084;8.872;2023-11-19T13:32:06;22.10;;;1.83;;
32186;SDS011;18686;53.084;8.872;2023-11-19T13:34:34;16.77;;;2.88;;
32186;SDS011;18686;53.084;8.872;2023-11-19T13:37:03;23.75;;;2.60;;
32186;SDS011;18686;53.084;8.872;2023-11-19T13:39:32;15.27;;;2.20;;
32186;SDS011;18686;53.084;8.872;2023-11-19T13:42:01;18.75;;;2.65;;
32186;SDS011;18686;53.084;8.872;2023-11-19T13:44:34;27.63;;;2.80;;
32186;SDS011;18686;53.084;8.872;2023-11-19T13:47:02;26.40;;;3.20;;
32186;SDS011;18686;53.084;8.872;2023-11-19T13:49:30;27.77;;;3.28;;
32186;SDS011;18686;53.084;8.872;2023-11-19T13:51:58;27.60;;;3.35;;
32186;SDS011;18686;53.084;8.872;2023-11-19T13:54:27;27.15;;;4.30;;
32186;SDS011;18686;53.084;8.872;2023-11-19T13:56:55;23.30;;;4.00;;
32186;SDS011;18686;53.084;8.872;2023-11-19T13:59:26;48.42;;;6.90;;
32186;SDS011;18686;53.084;8.872;2023-11-19T14:01:54;40.70;;;6.40;;
32186;SDS011;18686;53.084;8.872;2023-11-19T14:04:22;40.55;;;7.20;;
32186;SDS011;18686;53.084;8.872;2023-11-19T14:06:51;57.95;;;9.60;;
32186;SDS011;18686;53.084;8.872;2023-11-19T14:09:22;41.70;;;8.15;;
32186;SDS011;18686;53.084;8.872;2023-11-19T14:11:50;46.50;;;8.73;;
32186;SDS011;18686;53.084;8.872;2023-11-19T14:14:18;39.85;;;7.93;;
32186;SDS011;18686;53.084;8.872;2023-11-19T14:16:48;59.70;;;10.25;;
32186;SDS011;18686;53.084;8.872;2023-11-19T14:19:16;57.45;;;9.73;;
32186;SDS011;18686;53.084;8.872;2023-11-19T14:21:44;65.40;;;10.85;;
32186;SDS011;18686;53.084;8.872;2023-11-19T14:24:14;56.05;;;10.88;;
32186;SDS011;18686;53.084;8.872;2023-11-19T14:26:42;68.90;;;11.45;;
32186;SDS011;18686;53.084;8.872;2023-11-19T14:29:13;64.20;;;11.95;;
32186;SDS011;18686;53.084;8.872;2023-11-19T14:31:42;68.80;;;11.57;;
32186;SDS011;18686;53.084;8.872;2023-11-19T14:34:11;61.20;;;10.10;;
32186;SDS011;18686;53.084;8.872;2023-11-19T14:36:39;68.68;;;9.98;;